createdAt,value
2018-02-23T00:00:55.847Z,1020.97
2018-02-23T00:01:55.793Z,1020.97
2018-02-23T00:02:55.739Z,1021.01
2018-02-23T00:03:55.685Z,1020.98
2018-02-23T00:04:55.631Z,1020.99
2018-02-23T00:05:55.577Z,1020.97
2018-02-23T00:06:55.524Z,1020.97
2018-02-23T00:07:55.470Z,1020.90
2018-02-23T00:08:55.417Z,1020.95
2018-02-23T00:09:55.365Z,1020.96
2018-02-23T00:10:55.308Z,1020.94
2018-02-23T00:11:55.305Z,1020.97
2018-02-23T00:12:55.202Z,1020.89
2018-02-23T00:13:55.147Z,1020.84
2018-02-23T00:14:55.093Z,1020.84
2018-02-23T00:15:55.040Z,1020.81
2018-02-23T00:16:54.992Z,1020.82
2018-02-23T00:17:54.932Z,1020.76
2018-02-23T00:18:54.878Z,1020.81
2018-02-23T00:19:54.825Z,1020.79
2018-02-23T00:20:54.772Z,1020.81
2018-02-23T00:21:54.718Z,1020.81
2018-02-23T00:22:54.664Z,1020.79
2018-02-23T00:23:54.613Z,1020.82
2018-02-23T00:24:54.558Z,1020.75
2018-02-23T00:25:54.502Z,1020.74
2018-02-23T00:26:54.449Z,1020.76
2018-02-23T00:27:54.400Z,1020.73
2018-02-23T00:28:54.342Z,1020.75
2018-02-23T00:29:54.289Z,1020.76
2018-02-23T00:30:54.235Z,1020.76
2018-02-23T00:31:54.181Z,1020.78
2018-02-23T00:32:54.128Z,1020.78
2018-02-23T00:33:54.072Z,1020.80
2018-02-23T00:34:54.069Z,1020.83
2018-02-23T00:35:53.965Z,1020.81
2018-02-23T00:36:53.912Z,1020.80
2018-02-23T00:37:53.858Z,1020.82
2018-02-23T00:38:53.803Z,1020.84
2018-02-23T00:39:53.750Z,1020.87
2018-02-23T00:40:53.696Z,1020.86
2018-02-23T00:41:53.642Z,1020.88
2018-02-23T00:42:53.589Z,1020.88
2018-02-23T00:43:53.535Z,1020.89
2018-02-23T00:44:53.482Z,1020.85
2018-02-23T00:45:53.425Z,1020.84
2018-02-23T00:46:53.423Z,1020.92
2018-02-23T00:47:53.319Z,1020.89
2018-02-23T00:48:53.265Z,1020.88
2018-02-23T00:49:53.209Z,1020.89
2018-02-23T00:50:53.156Z,1020.84
2018-02-23T00:51:53.104Z,1020.88
2018-02-23T00:52:53.053Z,1020.85
2018-02-23T00:53:52.994Z,1020.85
2018-02-23T00:54:52.941Z,1020.86
2018-02-23T00:55:52.937Z,1020.87
2018-02-23T00:56:52.833Z,1020.84
2018-02-23T00:57:52.778Z,1020.83
2018-02-23T00:58:52.743Z,1020.84
2018-02-23T00:59:52.670Z,1020.82
2018-02-23T01:00:52.617Z,1020.78
2018-02-23T01:01:52.561Z,1020.80
2018-02-23T01:02:52.508Z,1020.82
2018-02-23T01:03:52.454Z,1020.78
2018-02-23T01:04:52.400Z,1020.82
2018-02-23T01:05:52.347Z,1020.79
2018-02-23T01:06:52.292Z,1020.79
2018-02-23T01:07:52.238Z,1020.78
2018-02-23T01:08:52.184Z,1020.79
2018-02-23T01:09:52.130Z,1020.80
2018-02-23T01:10:52.075Z,1020.81
2018-02-23T01:11:52.022Z,1020.81
2018-02-23T01:12:51.969Z,1020.82
2018-02-23T01:13:51.914Z,1020.82
2018-02-23T01:14:51.860Z,1020.82
2018-02-23T01:15:51.806Z,1020.79
2018-02-23T01:16:51.752Z,1020.82
2018-02-23T01:17:51.697Z,1020.76
2018-02-23T01:18:51.643Z,1020.76
2018-02-23T01:19:51.592Z,1020.73
2018-02-23T01:20:51.536Z,1020.75
2018-02-23T01:21:51.482Z,1020.76
2018-02-23T01:22:51.426Z,1020.71
2018-02-23T01:23:51.373Z,1020.72
2018-02-23T01:24:51.319Z,1020.75
2018-02-23T01:25:51.264Z,1020.70
2018-02-23T01:26:51.209Z,1020.70
2018-02-23T01:27:51.156Z,1020.69
2018-02-23T01:28:51.103Z,1020.68
2018-02-23T01:29:51.047Z,1020.73
2018-02-23T01:30:50.993Z,1020.77
2018-02-23T01:31:50.940Z,1020.71
2018-02-23T01:32:50.888Z,1020.74
2018-02-23T01:33:50.831Z,1020.70
2018-02-23T01:34:50.777Z,1020.73
2018-02-23T01:35:50.723Z,1020.72
2018-02-23T01:36:50.669Z,1020.75
2018-02-23T01:37:50.663Z,1020.72
2018-02-23T01:38:50.559Z,1020.69
2018-02-23T01:39:50.509Z,1020.72
2018-02-23T01:40:50.451Z,1020.74
2018-02-23T01:41:50.397Z,1020.71
2018-02-23T01:42:50.343Z,1020.68
2018-02-23T01:43:50.288Z,1020.70
2018-02-23T01:44:50.235Z,1020.68
2018-02-23T01:45:50.179Z,1020.68
2018-02-23T01:46:50.126Z,1020.65
2018-02-23T01:47:50.072Z,1020.65
2018-02-23T01:48:50.017Z,1020.66
2018-02-23T01:49:49.961Z,1020.67
2018-02-23T01:50:49.907Z,1020.67
2018-02-23T01:51:49.853Z,1020.69
2018-02-23T01:52:49.799Z,1020.65
2018-02-23T01:53:49.744Z,1020.68
2018-02-23T01:54:49.724Z,1020.65
2018-02-23T01:55:49.635Z,1020.66
2018-02-23T01:56:49.581Z,1020.69
2018-02-23T01:57:49.525Z,1020.62
2018-02-23T01:58:49.470Z,1020.61
2018-02-23T01:59:49.416Z,1020.63
2018-02-23T02:00:49.362Z,1020.56
2018-02-23T02:01:49.306Z,1020.56
2018-02-23T02:02:49.257Z,1020.54
2018-02-23T02:03:49.202Z,1020.53
2018-02-23T02:04:49.144Z,1020.55
2018-02-23T02:05:49.089Z,1020.54
2018-02-23T02:06:49.034Z,1020.53
2018-02-23T02:07:48.979Z,1020.55
2018-02-23T02:08:48.925Z,1020.55
2018-02-23T02:09:48.871Z,1020.56
2018-02-23T02:10:48.814Z,1020.57
2018-02-23T02:11:48.760Z,1020.57
2018-02-23T02:12:48.706Z,1020.52
2018-02-23T02:13:48.650Z,1020.54
2018-02-23T02:14:48.595Z,1020.51
2018-02-23T02:15:48.540Z,1020.55
2018-02-23T02:16:48.487Z,1020.57
2018-02-23T02:17:48.430Z,1020.58
2018-02-23T02:18:48.376Z,1020.52
2018-02-23T02:19:48.321Z,1020.54
2018-02-23T02:20:48.285Z,1020.56
2018-02-23T02:21:48.211Z,1020.56
2018-02-23T02:22:48.156Z,1020.54
2018-02-23T02:23:48.102Z,1020.58
2018-02-23T02:24:48.047Z,1020.57
2018-02-23T02:25:47.991Z,1020.54
2018-02-23T02:26:47.937Z,1020.53
2018-02-23T02:27:47.883Z,1020.54
2018-02-23T02:28:47.827Z,1020.58
2018-02-23T02:29:47.771Z,1020.54
2018-02-23T02:30:47.718Z,1020.54
2018-02-23T02:31:47.662Z,1020.55
2018-02-23T02:32:47.610Z,1020.57
2018-02-23T02:33:47.552Z,1020.54
2018-02-23T02:34:47.498Z,1020.53
2018-02-23T02:35:47.444Z,1020.55
2018-02-23T02:36:47.389Z,1020.50
2018-02-23T02:37:47.333Z,1020.53
2018-02-23T02:38:47.278Z,1020.50
2018-02-23T02:39:47.223Z,1020.55
2018-02-23T02:40:47.169Z,1020.51
2018-02-23T02:41:47.117Z,1020.52
2018-02-23T02:42:47.060Z,1020.54
2018-02-23T02:43:47.004Z,1020.52
2018-02-23T02:44:46.949Z,1020.52
2018-02-23T02:45:46.895Z,1020.50
2018-02-23T02:46:46.844Z,1020.50
2018-02-23T02:47:46.784Z,1020.52
2018-02-23T02:48:46.731Z,1020.55
2018-02-23T02:49:46.676Z,1020.55
2018-02-23T02:50:46.619Z,1020.56
2018-02-23T02:51:46.564Z,1020.53
2018-02-23T02:52:46.510Z,1020.56
2018-02-23T02:53:46.454Z,1020.54
2018-02-23T02:54:46.402Z,1020.52
2018-02-23T02:55:46.346Z,1020.55
2018-02-23T02:56:46.291Z,1020.52
2018-02-23T02:57:46.235Z,1020.52
2018-02-23T02:58:46.184Z,1020.51
2018-02-23T02:59:46.127Z,1020.53
2018-02-23T03:00:46.079Z,1020.52
2018-02-23T03:01:46.014Z,1020.51
2018-02-23T03:02:45.960Z,1020.59
2018-02-23T03:03:45.905Z,1020.56
2018-02-23T03:04:45.853Z,1020.58
2018-02-23T03:05:45.794Z,1020.53
2018-02-23T03:06:45.740Z,1020.55
2018-02-23T03:07:45.685Z,1020.52
2018-02-23T03:08:45.632Z,1020.53
2018-02-23T03:09:45.575Z,1020.53
2018-02-23T03:10:45.520Z,1020.56
2018-02-23T03:11:45.469Z,1020.54
2018-02-23T03:12:45.410Z,1020.57
2018-02-23T03:13:45.355Z,1020.58
2018-02-23T03:14:45.302Z,1020.59
2018-02-23T03:15:45.246Z,1020.61
2018-02-23T03:16:45.191Z,1020.56
2018-02-23T03:17:45.139Z,1020.56
2018-02-23T03:18:45.080Z,1020.58
2018-02-23T03:19:45.028Z,1020.58
2018-02-23T03:20:44.971Z,1020.57
2018-02-23T03:21:44.915Z,1020.53
2018-02-23T03:22:44.861Z,1020.55
2018-02-23T03:23:44.805Z,1020.47
2018-02-23T03:24:44.751Z,1020.49
2018-02-23T03:25:44.693Z,1020.52
2018-02-23T03:26:44.640Z,1020.51
2018-02-23T03:27:44.585Z,1020.53
2018-02-23T03:28:44.530Z,1020.54
2018-02-23T03:29:44.524Z,1020.60
2018-02-23T03:30:44.421Z,1020.55
2018-02-23T03:31:44.365Z,1020.51
2018-02-23T03:32:44.310Z,1020.52
2018-02-23T03:33:44.255Z,1020.47
2018-02-23T03:34:44.199Z,1020.47
2018-02-23T03:35:44.144Z,1020.48
2018-02-23T03:36:44.089Z,1020.48
2018-02-23T03:37:44.033Z,1020.49
2018-02-23T03:38:43.978Z,1020.52
2018-02-23T03:39:43.923Z,1020.52
2018-02-23T03:40:43.868Z,1020.54
2018-02-23T03:41:43.812Z,1020.55
2018-02-23T03:42:43.757Z,1020.60
2018-02-23T03:43:43.702Z,1020.56
2018-02-23T03:44:43.647Z,1020.56
2018-02-23T03:45:43.590Z,1020.62
2018-02-23T03:46:43.535Z,1020.65
2018-02-23T03:47:43.480Z,1020.61
2018-02-23T03:48:43.425Z,1020.65
2018-02-23T03:49:43.368Z,1020.64
2018-02-23T03:50:43.314Z,1020.67
2018-02-23T03:51:43.258Z,1020.64
2018-02-23T03:52:43.207Z,1020.67
2018-02-23T03:53:43.147Z,1020.65
2018-02-23T03:54:43.095Z,1020.72
2018-02-23T03:55:43.087Z,1020.70
2018-02-23T03:56:43.036Z,1020.74
2018-02-23T03:57:42.925Z,1020.72
2018-02-23T03:58:42.869Z,1020.76
2018-02-23T03:59:42.817Z,1020.75
2018-02-23T04:00:42.760Z,1020.77
2018-02-23T04:01:42.703Z,1020.71
2018-02-23T04:02:42.648Z,1020.73
2018-02-23T04:03:42.597Z,1020.73
2018-02-23T04:04:42.539Z,1020.74
2018-02-23T04:05:42.482Z,1020.71
2018-02-23T04:06:42.427Z,1020.76
2018-02-23T04:07:42.372Z,1020.74
2018-02-23T04:08:42.317Z,1020.73
2018-02-23T04:09:42.261Z,1020.76
2018-02-23T04:10:42.206Z,1020.71
2018-02-23T04:11:42.151Z,1020.73
2018-02-23T04:12:42.096Z,1020.71
2018-02-23T04:13:42.045Z,1020.76
2018-02-23T04:14:41.984Z,1020.73
2018-02-23T04:15:41.929Z,1020.77
2018-02-23T04:16:41.874Z,1020.73
2018-02-23T04:17:41.822Z,1020.69
2018-02-23T04:18:41.763Z,1020.67
2018-02-23T04:19:41.708Z,1020.71
2018-02-23T04:20:41.652Z,1020.71
2018-02-23T04:21:41.597Z,1020.69
2018-02-23T04:22:41.541Z,1020.68
2018-02-23T04:23:41.486Z,1020.73
2018-02-23T04:24:41.431Z,1020.70
2018-02-23T04:25:41.375Z,1020.74
2018-02-23T04:26:41.320Z,1020.77
2018-02-23T04:27:41.264Z,1020.76
2018-02-23T04:28:41.210Z,1020.77
2018-02-23T04:29:41.153Z,1020.77
2018-02-23T04:30:41.098Z,1020.76
2018-02-23T04:31:41.044Z,1020.74
2018-02-23T04:32:40.991Z,1020.74
2018-02-23T04:33:40.932Z,1020.75
2018-02-23T04:34:40.877Z,1020.78
2018-02-23T04:35:40.822Z,1020.82
2018-02-23T04:36:40.767Z,1020.83
2018-02-23T04:37:40.712Z,1020.82
2018-02-23T04:38:40.656Z,1020.80
2018-02-23T04:39:40.605Z,1020.82
2018-02-23T04:40:40.549Z,1020.80
2018-02-23T04:41:40.490Z,1020.82
2018-02-23T04:42:40.435Z,1020.83
2018-02-23T04:43:40.380Z,1020.81
2018-02-23T04:44:40.325Z,1020.82
2018-02-23T04:45:40.269Z,1020.82
2018-02-23T04:46:40.214Z,1020.85
2018-02-23T04:47:40.159Z,1020.89
2018-02-23T04:48:40.103Z,1020.88
2018-02-23T04:49:40.047Z,1020.92
2018-02-23T04:50:39.992Z,1020.90
2018-02-23T04:51:39.937Z,1020.92
2018-02-23T04:52:39.882Z,1020.95
2018-02-23T04:53:39.825Z,1020.95
2018-02-23T04:54:39.771Z,1020.93
2018-02-23T04:55:39.714Z,1020.99
2018-02-23T04:56:39.659Z,1021.00
2018-02-23T04:57:39.603Z,1020.98
2018-02-23T04:58:39.547Z,1020.99
2018-02-23T04:59:39.501Z,1020.98
2018-02-23T05:00:39.436Z,1021.01
2018-02-23T05:01:39.383Z,1020.99
2018-02-23T05:02:39.325Z,1020.97
2018-02-23T05:03:39.274Z,1021.00
2018-02-23T05:04:39.214Z,1021.01
2018-02-23T05:05:39.157Z,1021.05
2018-02-23T05:06:39.102Z,1020.95
2018-02-23T05:07:39.046Z,1020.95
2018-02-23T05:08:38.991Z,1020.96
2018-02-23T05:09:38.934Z,1020.96
2018-02-23T05:10:38.878Z,1020.99
2018-02-23T05:11:38.823Z,1021.00
2018-02-23T05:12:38.767Z,1020.99
2018-02-23T05:13:38.710Z,1020.99
2018-02-23T05:14:38.657Z,1020.99
2018-02-23T05:15:38.599Z,1021.02
2018-02-23T05:16:38.547Z,1020.98
2018-02-23T05:17:38.486Z,1021.02
2018-02-23T05:18:38.434Z,1021.05
2018-02-23T05:19:38.376Z,1021.08
2018-02-23T05:20:38.319Z,1021.09
2018-02-23T05:21:38.264Z,1021.04
2018-02-23T05:22:38.207Z,1021.07
2018-02-23T05:23:38.151Z,1021.04
2018-02-23T05:24:38.095Z,1021.07
2018-02-23T05:25:38.043Z,1021.08
2018-02-23T05:26:37.986Z,1021.11
2018-02-23T05:27:37.927Z,1021.10
2018-02-23T05:28:37.872Z,1021.14
2018-02-23T05:29:37.815Z,1021.15
2018-02-23T05:30:37.762Z,1021.14
2018-02-23T05:31:37.703Z,1021.13
2018-02-23T05:32:37.648Z,1021.14
2018-02-23T05:33:37.592Z,1021.06
2018-02-23T05:34:37.537Z,1021.10
2018-02-23T05:35:37.479Z,1021.07
2018-02-23T05:36:37.423Z,1021.05
2018-02-23T05:37:37.366Z,1021.06
2018-02-23T05:38:37.310Z,1021.10
2018-02-23T05:39:37.254Z,1021.07
2018-02-23T05:40:37.201Z,1021.08
2018-02-23T05:41:37.141Z,1021.06
2018-02-23T05:42:37.124Z,1021.08
2018-02-23T05:43:37.031Z,1021.04
2018-02-23T05:44:36.974Z,1021.05
2018-02-23T05:45:36.917Z,1021.08
2018-02-23T05:46:36.860Z,1021.04
2018-02-23T05:47:36.805Z,1021.09
2018-02-23T05:48:36.748Z,1021.09
2018-02-23T05:49:36.692Z,1021.10
2018-02-23T05:50:36.636Z,1021.09
2018-02-23T05:51:36.579Z,1021.10
2018-02-23T05:52:36.525Z,1021.16
2018-02-23T05:53:36.467Z,1021.14
2018-02-23T05:54:36.411Z,1021.14
2018-02-23T05:55:36.355Z,1021.22
2018-02-23T05:56:36.299Z,1021.19
2018-02-23T05:57:36.242Z,1021.16
2018-02-23T05:58:36.189Z,1021.22
2018-02-23T05:59:36.130Z,1021.21
2018-02-23T06:00:36.074Z,1021.23
2018-02-23T06:01:36.017Z,1021.19
2018-02-23T06:02:35.961Z,1021.24
2018-02-23T06:03:35.905Z,1021.26
2018-02-23T06:04:35.848Z,1021.26
2018-02-23T06:05:35.792Z,1021.29
2018-02-23T06:06:35.737Z,1021.31
2018-02-23T06:07:35.690Z,1021.34
2018-02-23T06:08:35.623Z,1021.36
2018-02-23T06:09:35.566Z,1021.33
2018-02-23T06:10:35.510Z,1021.39
2018-02-23T06:11:35.455Z,1021.38
2018-02-23T06:12:35.399Z,1021.37
2018-02-23T06:13:35.342Z,1021.42
2018-02-23T06:14:35.285Z,1021.41
2018-02-23T06:15:35.229Z,1021.42
2018-02-23T06:16:35.173Z,1021.42
2018-02-23T06:17:35.116Z,1021.48
2018-02-23T06:18:35.060Z,1021.43
2018-02-23T06:19:35.004Z,1021.41
2018-02-23T06:20:34.949Z,1021.42
2018-02-23T06:21:34.892Z,1021.41
2018-02-23T06:22:34.841Z,1021.40
2018-02-23T06:23:34.779Z,1021.42
2018-02-23T06:24:34.723Z,1021.46
2018-02-23T06:25:34.666Z,1021.48
2018-02-23T06:26:34.609Z,1021.51
2018-02-23T06:27:34.603Z,1021.51
2018-02-23T06:28:34.497Z,1021.55
2018-02-23T06:29:34.440Z,1021.52
2018-02-23T06:30:34.383Z,1021.53
2018-02-23T06:31:34.328Z,1021.57
2018-02-23T06:32:34.271Z,1021.58
2018-02-23T06:33:34.215Z,1021.61
2018-02-23T06:34:34.165Z,1021.59
2018-02-23T06:35:34.101Z,1021.61
2018-02-23T06:36:34.045Z,1021.63
2018-02-23T06:37:34.038Z,1021.64
2018-02-23T06:38:33.932Z,1021.66
2018-02-23T06:39:33.875Z,1021.75
2018-02-23T06:40:33.820Z,1021.73
2018-02-23T06:41:33.762Z,1021.76
2018-02-23T06:42:33.706Z,1021.75
2018-02-23T06:43:33.650Z,1021.76
2018-02-23T06:44:33.594Z,1021.77
2018-02-23T06:45:33.536Z,1021.80
2018-02-23T06:46:33.481Z,1021.79
2018-02-23T06:47:33.424Z,1021.78
2018-02-23T06:48:33.368Z,1021.82
2018-02-23T06:49:33.311Z,1021.79
2018-02-23T06:50:33.256Z,1021.84
2018-02-23T06:51:33.200Z,1021.84
2018-02-23T06:52:33.145Z,1021.87
2018-02-23T06:53:33.090Z,1021.90
2018-02-23T06:54:33.030Z,1021.89
2018-02-23T06:55:32.974Z,1021.88
2018-02-23T06:56:32.919Z,1021.91
2018-02-23T06:57:32.862Z,1021.88
2018-02-23T06:58:32.806Z,1021.90
2018-02-23T06:59:32.753Z,1021.89
2018-02-23T07:00:32.695Z,1021.95
2018-02-23T07:01:32.638Z,1021.89
2018-02-23T07:02:32.582Z,1021.91
2018-02-23T07:03:32.527Z,1021.91
2018-02-23T07:04:32.471Z,1021.93
2018-02-23T07:05:32.416Z,1021.97
2018-02-23T07:06:32.359Z,1021.97
2018-02-23T07:07:32.304Z,1022.02
2018-02-23T07:08:32.256Z,1021.96
2018-02-23T07:09:32.193Z,1022.01
2018-02-23T07:10:32.137Z,1022.01
2018-02-23T07:11:32.084Z,1022.03
2018-02-23T07:12:32.031Z,1021.99
2018-02-23T07:13:31.975Z,1022.02
2018-02-23T07:14:31.922Z,1022.12
2018-02-23T07:15:31.869Z,1022.19
2018-02-23T07:16:31.815Z,1022.20
2018-02-23T07:17:31.761Z,1022.20
2018-02-23T07:18:31.708Z,1022.24
2018-02-23T07:19:31.655Z,1022.20
2018-02-23T07:20:31.603Z,1022.23
2018-02-23T07:21:31.549Z,1022.26
2018-02-23T07:22:31.497Z,1022.30
2018-02-23T07:23:31.445Z,1022.31
2018-02-23T07:24:31.393Z,1022.29
2018-02-23T07:25:31.341Z,1022.30
2018-02-23T07:26:31.291Z,1022.30
2018-02-23T07:27:31.240Z,1022.30
2018-02-23T07:28:31.196Z,1022.38
2018-02-23T07:29:31.139Z,1022.41
2018-02-23T07:30:31.089Z,1022.39
2018-02-23T07:31:31.039Z,1022.44
2018-02-23T07:32:30.990Z,1022.39
2018-02-23T07:33:30.941Z,1022.37
2018-02-23T07:34:30.891Z,1022.41
2018-02-23T07:35:30.843Z,1022.45
2018-02-23T07:36:30.795Z,1022.47
2018-02-23T07:37:30.749Z,1022.46
2018-02-23T07:38:30.698Z,1022.46
2018-02-23T07:39:30.657Z,1022.49
2018-02-23T07:40:30.603Z,1022.51
2018-02-23T07:41:30.555Z,1022.50
2018-02-23T07:42:30.508Z,1022.53
2018-02-23T07:43:30.460Z,1022.59
2018-02-23T07:44:30.414Z,1022.61
2018-02-23T07:45:30.366Z,1022.66
2018-02-23T07:46:30.324Z,1022.63
2018-02-23T07:47:30.273Z,1022.65
2018-02-23T07:48:30.224Z,1022.73
2018-02-23T07:49:30.176Z,1022.72
2018-02-23T07:50:30.132Z,1022.80
2018-02-23T07:51:30.082Z,1022.82
2018-02-23T07:52:30.043Z,1022.84
2018-02-23T07:53:29.988Z,1022.92
2018-02-23T07:54:29.942Z,1022.92
2018-02-23T07:55:29.901Z,1022.87
2018-02-23T07:56:29.849Z,1022.90
2018-02-23T07:57:29.801Z,1022.91
2018-02-23T07:58:29.757Z,1022.91
2018-02-23T07:59:29.709Z,1023.00
2018-02-23T08:00:29.663Z,1023.06
2018-02-23T08:01:29.620Z,1023.09
2018-02-23T08:02:29.572Z,1023.10
2018-02-23T08:03:29.527Z,1023.14
2018-02-23T08:04:29.480Z,1023.19
2018-02-23T08:05:29.435Z,1023.22
2018-02-23T08:06:29.391Z,1023.24
2018-02-23T08:07:29.347Z,1023.33
2018-02-23T08:08:29.303Z,1023.30
2018-02-23T08:09:29.258Z,1023.33
2018-02-23T08:10:29.215Z,1023.39
2018-02-23T08:11:29.171Z,1023.40
2018-02-23T08:12:29.128Z,1023.31
2018-02-23T08:13:29.131Z,1023.25
2018-02-23T08:14:29.043Z,1023.28
2018-02-23T08:15:28.996Z,1023.32
2018-02-23T08:16:28.957Z,1023.28
2018-02-23T08:17:28.910Z,1023.27
2018-02-23T08:18:28.868Z,1023.30
2018-02-23T08:19:28.825Z,1023.32
2018-02-23T08:20:28.786Z,1023.32
2018-02-23T08:21:28.739Z,1023.33
2018-02-23T08:22:28.696Z,1023.31
2018-02-23T08:23:28.660Z,1023.35
2018-02-23T08:24:28.611Z,1023.32
2018-02-23T08:25:28.568Z,1023.37
2018-02-23T08:26:28.573Z,1023.13
2018-02-23T08:27:28.484Z,1023.06
2018-02-23T08:28:28.441Z,1023.12
2018-02-23T08:29:28.398Z,1023.09
2018-02-23T08:30:28.357Z,1023.10
2018-02-23T08:31:28.319Z,1023.12
2018-02-23T08:32:28.274Z,1023.14
2018-02-23T08:33:28.232Z,1023.10
2018-02-23T08:34:28.190Z,1023.13
2018-02-23T08:35:28.149Z,1023.07
2018-02-23T08:36:28.106Z,1023.12
2018-02-23T08:37:28.066Z,1023.13
2018-02-23T08:38:28.024Z,1023.13
2018-02-23T08:39:27.983Z,1023.16
2018-02-23T08:40:27.940Z,1023.15
2018-02-23T08:41:27.900Z,1023.14
2018-02-23T08:42:27.858Z,1023.19
2018-02-23T08:43:27.820Z,1023.22
2018-02-23T08:44:27.776Z,1023.29
2018-02-23T08:45:27.736Z,1023.27
2018-02-23T08:46:27.693Z,1023.23
2018-02-23T08:47:27.652Z,1023.23
2018-02-23T08:48:27.612Z,1023.19
2018-02-23T08:49:27.570Z,1023.21
2018-02-23T08:50:27.537Z,1023.25
2018-02-23T08:51:27.498Z,1023.24
2018-02-23T08:52:27.447Z,1023.27
2018-02-23T08:53:27.405Z,1023.23
2018-02-23T08:54:27.364Z,1023.23
2018-02-23T08:55:27.324Z,1023.16
2018-02-23T08:56:27.283Z,1023.19
2018-02-23T08:57:27.242Z,1023.17
2018-02-23T08:58:27.202Z,1023.16
2018-02-23T08:59:27.161Z,1023.16
2018-02-23T09:00:27.129Z,1023.09
2018-02-23T09:01:27.080Z,1023.10
2018-02-23T09:02:27.040Z,1023.02
2018-02-23T09:03:26.998Z,1023.07
2018-02-23T09:04:26.960Z,1023.01
2018-02-23T09:05:26.920Z,1023.01
2018-02-23T09:06:26.880Z,1022.97
2018-02-23T09:07:26.840Z,1023.01
2018-02-23T09:08:26.800Z,1023.11
2018-02-23T09:09:26.758Z,1023.04
2018-02-23T09:10:26.719Z,1023.04
2018-02-23T09:11:26.679Z,1023.02
2018-02-23T09:12:26.642Z,1023.01
2018-02-23T09:13:26.599Z,1023.03
2018-02-23T09:14:26.560Z,1022.83
2018-02-23T09:15:26.519Z,1022.98
2018-02-23T09:16:26.478Z,1023.03
2018-02-23T09:17:26.437Z,1023.08
2018-02-23T09:18:26.400Z,1023.06
2018-02-23T09:19:26.355Z,1022.98
2018-02-23T09:20:26.318Z,1023.11
2018-02-23T09:21:26.272Z,1023.14
2018-02-23T09:22:26.230Z,1023.17
2018-02-23T09:23:26.188Z,1023.13
2018-02-23T09:24:26.146Z,1023.17
2018-02-23T09:25:26.203Z,1023.13
2018-02-23T09:26:26.061Z,1023.22
2018-02-23T09:27:26.019Z,1023.14
2018-02-23T09:28:25.976Z,1023.17
2018-02-23T09:29:25.936Z,1023.13
2018-02-23T09:30:25.891Z,1023.14
2018-02-23T09:31:25.877Z,1023.21
2018-02-23T09:32:25.806Z,1023.15
2018-02-23T09:33:25.766Z,1023.18
2018-02-23T09:34:25.722Z,1023.14
2018-02-23T09:35:25.681Z,1023.06
2018-02-23T09:36:25.640Z,1023.16
2018-02-23T09:37:25.597Z,1023.12
2018-02-23T09:38:25.556Z,1023.05
2018-02-23T09:39:25.515Z,1023.04
2018-02-23T09:40:25.473Z,1023.09
2018-02-23T09:41:25.431Z,1023.03
2018-02-23T09:42:25.390Z,1023.05
2018-02-23T09:43:25.348Z,1023.02
2018-02-23T09:44:25.306Z,1022.97
2018-02-23T09:45:25.265Z,1022.95
2018-02-23T09:46:25.222Z,1022.96
2018-02-23T09:47:25.180Z,1022.89
2018-02-23T09:48:25.138Z,1022.86
2018-02-23T09:49:25.094Z,1022.90
2018-02-23T09:50:25.051Z,1022.87
2018-02-23T09:51:25.009Z,1022.88
2018-02-23T09:52:24.966Z,1022.87
2018-02-23T09:53:24.918Z,1022.88
2018-02-23T09:54:24.877Z,1022.83
2018-02-23T09:55:24.831Z,1022.86
2018-02-23T09:56:24.786Z,1022.89
2018-02-23T09:57:24.740Z,1022.84
2018-02-23T09:58:24.693Z,1022.85
2018-02-23T09:59:24.647Z,1022.83
2018-02-23T10:00:24.603Z,1022.84
2018-02-23T10:01:24.555Z,1022.82
2018-02-23T10:02:24.508Z,1022.79
2018-02-23T10:03:24.461Z,1022.79
2018-02-23T10:04:24.415Z,1022.81
2018-02-23T10:05:24.367Z,1022.86
2018-02-23T10:06:24.318Z,1022.88
2018-02-23T10:07:24.271Z,1022.86
2018-02-23T10:08:24.224Z,1022.87
2018-02-23T10:09:24.174Z,1022.87
2018-02-23T10:10:24.133Z,1022.87
2018-02-23T10:11:24.078Z,1022.88
2018-02-23T10:12:24.030Z,1022.90
2018-02-23T10:13:23.980Z,1022.86
2018-02-23T10:14:23.934Z,1022.92
2018-02-23T10:15:23.883Z,1022.90
2018-02-23T10:16:23.833Z,1022.86
2018-02-23T10:17:23.784Z,1022.85
2018-02-23T10:18:23.744Z,1022.83
2018-02-23T10:19:23.685Z,1022.83
2018-02-23T10:20:23.636Z,1022.86
2018-02-23T10:21:23.584Z,1022.83
2018-02-23T10:22:23.534Z,1022.82
2018-02-23T10:23:23.485Z,1022.84
2018-02-23T10:24:23.434Z,1022.86
2018-02-23T10:25:23.384Z,1022.79
2018-02-23T10:26:23.334Z,1022.77
2018-02-23T10:27:23.284Z,1022.80
2018-02-23T10:28:23.233Z,1022.77
2018-02-23T10:29:23.182Z,1022.79
2018-02-23T10:30:23.132Z,1022.75
2018-02-23T10:31:23.081Z,1022.73
2018-02-23T10:32:23.031Z,1022.82
2018-02-23T10:33:23.032Z,1022.74
2018-02-23T10:34:22.928Z,1022.69
2018-02-23T10:35:22.880Z,1022.69
2018-02-23T10:36:22.827Z,1022.72
2018-02-23T10:37:22.776Z,1022.70
2018-02-23T10:38:22.724Z,1022.73
2018-02-23T10:39:22.674Z,1022.62
2018-02-23T10:40:22.624Z,1022.70
2018-02-23T10:41:22.582Z,1022.69
2018-02-23T10:42:22.530Z,1022.67
2018-02-23T10:43:22.472Z,1022.66
2018-02-23T10:44:22.422Z,1022.66
2018-02-23T10:45:22.370Z,1022.66
2018-02-23T10:46:22.320Z,1022.70
2018-02-23T10:47:22.269Z,1022.69
2018-02-23T10:48:22.219Z,1022.70
2018-02-23T10:49:22.167Z,1022.71
2018-02-23T10:50:22.116Z,1022.72
2018-02-23T10:51:22.066Z,1022.74
2018-02-23T10:52:22.016Z,1022.73
2018-02-23T10:53:21.964Z,1022.68
2018-02-23T10:54:21.912Z,1022.69
2018-02-23T10:55:21.865Z,1022.70
2018-02-23T10:56:21.812Z,1022.75
2018-02-23T10:57:21.760Z,1022.66
2018-02-23T10:58:21.709Z,1022.73
2018-02-23T10:59:21.657Z,1022.68
2018-02-23T11:00:21.607Z,1022.71
2018-02-23T11:01:21.555Z,1022.68
2018-02-23T11:02:21.504Z,1022.67
2018-02-23T11:03:21.454Z,1022.66
2018-02-23T11:04:21.405Z,1022.65
2018-02-23T11:05:21.350Z,1022.61
2018-02-23T11:06:21.300Z,1022.59
2018-02-23T11:07:21.298Z,1022.60
2018-02-23T11:08:21.203Z,1022.62
2018-02-23T11:09:21.145Z,1022.61
2018-02-23T11:10:21.094Z,1022.63
2018-02-23T11:11:21.044Z,1022.63
2018-02-23T11:12:20.992Z,1022.63
2018-02-23T11:13:20.939Z,1022.61
2018-02-23T11:14:20.937Z,1022.56
2018-02-23T11:15:20.836Z,1022.60
2018-02-23T11:16:20.785Z,1022.57
2018-02-23T11:17:20.733Z,1022.55
2018-02-23T11:18:20.682Z,1022.56
2018-02-23T11:19:20.630Z,1022.53
2018-02-23T11:20:20.582Z,1022.55
2018-02-23T11:21:20.536Z,1022.54
2018-02-23T11:22:20.475Z,1022.51
2018-02-23T11:23:20.424Z,1022.49
2018-02-23T11:24:20.373Z,1022.46
2018-02-23T11:25:20.319Z,1022.49
2018-02-23T11:26:20.267Z,1022.49
2018-02-23T11:27:20.216Z,1022.44
2018-02-23T11:28:20.170Z,1022.52
2018-02-23T11:29:20.112Z,1022.47
2018-02-23T11:30:20.060Z,1022.48
2018-02-23T11:31:20.007Z,1022.44
2018-02-23T11:32:19.957Z,1022.45
2018-02-23T11:33:19.904Z,1022.50
2018-02-23T11:34:19.852Z,1022.45
2018-02-23T11:35:19.799Z,1022.45
2018-02-23T11:36:19.749Z,1022.40
2018-02-23T11:37:19.696Z,1022.43
2018-02-23T11:38:19.649Z,1022.40
2018-02-23T11:39:19.594Z,1022.41
2018-02-23T11:40:19.540Z,1022.38
2018-02-23T11:41:19.487Z,1022.41
2018-02-23T11:42:19.452Z,1022.36
2018-02-23T11:43:19.383Z,1022.34
2018-02-23T11:44:19.332Z,1022.35
2018-02-23T11:45:19.279Z,1022.33
2018-02-23T11:46:19.228Z,1022.31
2018-02-23T11:47:19.176Z,1022.32
2018-02-23T11:48:19.122Z,1022.24
2018-02-23T11:49:19.070Z,1022.30
2018-02-23T11:50:19.041Z,1022.31
2018-02-23T11:51:18.967Z,1022.28
2018-02-23T11:52:18.916Z,1022.26
2018-02-23T11:53:18.863Z,1022.25
2018-02-23T11:54:18.812Z,1022.31
2018-02-23T11:55:18.760Z,1022.34
2018-02-23T11:56:18.708Z,1022.31
2018-02-23T11:57:18.656Z,1022.33
2018-02-23T11:58:18.605Z,1022.33
2018-02-23T11:59:18.553Z,1022.25
2018-02-23T12:00:18.502Z,1022.24
2018-02-23T12:01:18.449Z,1022.24
2018-02-23T12:02:18.398Z,1022.27
2018-02-23T12:03:18.346Z,1022.29
2018-02-23T12:04:18.294Z,1022.28
2018-02-23T12:05:18.242Z,1022.27